Time;durP1;ratioP1;P1;durP2;ratioP2;P2;SDS_P1;SDS_P2;PMS_P1;PMS_P2;Temp;Humidity;BMP_temperature;BMP_pressure;BME280_temperature;BME280_humidity;BME280_pressure;Samples;Min_cycle;Max_cycle;Signal;HPM_P1;HPM_P2
2021/10/06 00:00:58;;;;;;;10.25;5.07;;;;;;;17.32;48.94;100563.09;4992412;28;20424;-67
2021/10/06 00:03:24;;;;;;;8.95;5.45;;;;;;;17.41;48.79;100576.47;4992091;28;20034;-65
2021/10/06 00:05:49;;;;;;;8.10;5.47;;;;;;;17.36;48.97;100572.59;4992079;28;20027;-66
2021/10/06 00:08:15;;;;;;;11.60;5.45;;;;;;;17.41;49.21;100581.06;4991020;28;20022;-66
2021/10/06 00:10:40;;;;;;;12.52;6.80;;;;;;;17.37;48.96;100590.53;4992269;28;20391;-66
2021/10/06 00:13:06;;;;;;;9.57;5.50;;;;;;;17.30;49.30;100578.69;4990683;28;20027;-67
2021/10/06 00:15:31;;;;;;;10.75;5.28;;;;;;;17.27;49.47;100588.03;4991151;28;20451;-66
2021/10/06 00:17:57;;;;;;;8.38;5.13;;;;;;;17.20;49.74;100588.88;4991981;28;20062;-67
2021/10/06 00:20:22;;;;;;;9.73;6.18;;;;;;;17.23;49.72;100588.53;4991933;28;20447;-67
2021/10/06 00:22:48;;;;;;;9.82;5.38;;;;;;;17.22;49.63;100584.97;4992111;28;20026;-67
2021/10/06 00:25:13;;;;;;;14.43;5.65;;;;;;;17.23;49.98;100589.38;5006810;28;20029;-66
2021/10/06 00:27:39;;;;;;;11.18;5.43;;;;;;;17.20;50.17;100595.16;4991883;28;20527;-67
2021/10/06 00:30:05;;;;;;;12.13;5.55;;;;;;;17.14;50.31;100576.00;4992072;28;20041;-66
2021/10/06 00:32:30;;;;;;;11.82;5.60;;;;;;;17.16;50.08;100587.53;4992273;28;20030;-67
2021/10/06 00:34:56;;;;;;;10.75;5.40;;;;;;;17.07;50.33;100575.84;4991608;28;20026;-67
2021/10/06 00:37:21;;;;;;;8.50;5.50;;;;;;;17.12;50.41;100584.28;4991639;28;20030;-66
2021/10/06 00:39:47;;;;;;;11.13;6.28;;;;;;;17.07;50.28;100577.69;4991933;28;20026;-66
2021/10/06 00:42:12;;;;;;;10.70;5.85;;;;;;;17.05;50.77;100585.13;4991748;28;20069;-65
2021/10/06 00:44:38;;;;;;;10.65;5.68;;;;;;;17.01;51.98;100578.38;4991571;28;20101;-67
2021/10/06 00:47:05;;;;;;;13.85;6.00;;;;;;;17.01;52.83;100576.53;4991914;28;20030;-65
2021/10/06 00:49:30;;;;;;;15.68;6.50;;;;;;;17.01;54.01;100578.38;4991772;28;20038;-65
2021/10/06 00:51:56;;;;;;;10.07;5.65;;;;;;;16.97;55.04;100577.88;4990275;28;20037;-66
2021/10/06 00:54:22;;;;;;;12.05;6.32;;;;;;;16.94;55.23;100567.38;4991587;28;20026;-64
2021/10/06 00:56:48;;;;;;;13.10;5.40;;;;;;;16.82;54.72;100552.47;4991738;28;20038;-64
2021/10/06 00:59:13;;;;;;;10.77;5.95;;;;;;;16.88;55.32;100572.59;4991472;28;20380;-67
2021/10/06 01:01:39;;;;;;;10.07;5.93;;;;;;;16.84;55.68;100571.25;4991501;28;20125;-65
2021/10/06 01:04:06;;;;;;;16.35;6.18;;;;;;;16.81;55.80;100579.72;4991634;28;20019;-65
2021/10/06 01:06:32;;;;;;;15.70;6.28;;;;;;;16.77;55.82;100568.34;4991707;28;20076;-64
2021/10/06 01:08:59;;;;;;;11.32;5.85;;;;;;;16.76;54.98;100571.25;4991441;28;20030;-65
2021/10/06 01:11:25;;;;;;;8.15;6.03;;;;;;;16.71;56.16;100566.34;4991523;28;20465;-64
2021/10/06 01:13:51;;;;;;;10.20;6.30;;;;;;;16.68;55.77;100563.13;4991356;28;20098;-67
2021/10/06 01:16:16;;;;;;;11.25;6.38;;;;;;;16.59;55.96;100556.00;4991193;28;20026;-66
2021/10/06 01:18:42;;;;;;;11.65;6.65;;;;;;;16.61;56.10;100557.50;4991135;28;20035;-65
2021/10/06 01:21:15;;;;;;;12.65;6.10;;;;;;;16.62;55.20;100552.94;4991420;28;20069;-66
2021/10/06 01:23:42;;;;;;;12.18;6.55;;;;;;;16.56;55.58;100559.88;4991365;28;20117;-66
2021/10/06 01:26:07;;;;;;;9.70;6.18;;;;;;;16.53;56.38;100559.34;4990844;28;20122;-66
2021/10/06 01:28:33;;;;;;;9.07;6.47;;;;;;;16.50;55.39;100565.97;4991367;28;20121;-65
2021/10/06 01:30:59;;;;;;;14.93;6.35;;;;;;;16.47;55.79;100557.34;4990775;28;20038;-65
2021/10/06 01:33:24;;;;;;;11.48;6.40;;;;;;;16.44;55.86;100563.09;4990750;28;20054;-67
2021/10/06 01:35:49;;;;;;;11.27;5.57;;;;;;;16.41;55.65;100555.25;4990929;28;20027;-66
2021/10/06 01:38:17;;;;;;;14.15;6.20;;;;;;;16.38;55.23;100548.28;4990857;28;20109;-65
2021/10/06 01:40:42;;;;;;;13.07;6.10;;;;;;;16.40;54.80;100558.97;4990950;28;20534;-67
2021/10/06 01:43:08;;;;;;;17.35;6.10;;;;;;;16.25;55.02;100536.28;4990835;28;20014;-66
2021/10/06 01:45:33;;;;;;;10.50;6.00;;;;;;;16.33;54.77;100553.38;4991009;28;20057;-66
2021/10/06 01:48:06;;;;;;;11.13;6.57;;;;;;;16.33;54.57;100549.81;4990672;28;20033;-66
2021/10/06 01:50:32;;;;;;;10.52;5.75;;;;;;;16.32;54.90;100543.56;4989691;28;20038;-67
2021/10/06 01:52:58;;;;;;;13.85;5.82;;;;;;;16.32;54.35;100548.13;4990795;28;20027;-65
2021/10/06 01:55:28;;;;;;;17.33;5.90;;;;;;;16.23;54.51;100533.75;4990864;28;20030;-66
2021/10/06 01:57:56;;;;;;;14.48;6.25;;;;;;;16.30;54.39;100539.31;4990792;28;20031;-65
2021/10/06 02:00:23;;;;;;;11.73;6.40;;;;;;;16.28;54.39;100536.78;4990483;28;20031;-68
2021/10/06 02:02:48;;;;;;;15.43;6.07;;;;;;;16.27;54.24;100536.94;4992254;28;20472;-67
2021/10/06 02:05:14;;;;;;;15.07;6.25;;;;;;;16.26;54.44;100546.94;4994394;28;20030;-66
2021/10/06 02:07:39;;;;;;;14.30;6.50;;;;;;;16.22;54.19;100536.59;4994779;28;20164;-67
2021/10/06 02:10:06;;;;;;;14.18;5.90;;;;;;;16.26;54.20;100543.38;4994548;28;20030;-66
2021/10/06 02:12:31;;;;;;;8.75;5.63;;;;;;;16.23;54.25;100541.84;4994288;28;20061;-65
2021/10/06 02:14:57;;;;;;;20.88;6.35;;;;;;;16.19;53.88;100528.81;4993743;28;20022;-67
2021/10/06 02:17:22;;;;;;;12.93;5.85;;;;;;;16.22;53.77;100534.72;4994033;28;20484;-67
2021/10/06 02:19:48;;;;;;;11.98;6.90;;;;;;;16.22;53.85;100531.19;4994278;28;20527;-66
2021/10/06 02:22:13;;;;;;;16.60;6.03;;;;;;;16.14;53.90;100523.03;4992972;28;20027;-66
2021/10/06 02:24:38;;;;;;;13.55;5.80;;;;;;;16.20;53.71;100533.19;4993324;28;20026;-67
2021/10/06 02:27:04;;;;;;;8.55;6.20;;;;;;;16.20;53.78;100538.63;4993190;28;20042;-67
2021/10/06 02:29:30;;;;;;;15.00;6.60;;;;;;;16.16;54.07;100531.84;4992592;28;20037;-66
2021/10/06 02:31:55;;;;;;;15.43;7.05;;;;;;;16.15;53.67;100546.41;4993276;28;20014;-67
2021/10/06 02:34:21;;;;;;;14.70;6.53;;;;;;;16.14;53.56;100541.97;4992210;28;20034;-66
2021/10/06 02:36:46;;;;;;;12.50;5.93;;;;;;;16.14;53.84;100540.13;4992064;28;20045;-65
2021/10/06 02:39:12;;;;;;;13.57;6.15;;;;;;;16.13;53.72;100537.59;4993057;28;20113;-66
2021/10/06 02:41:37;;;;;;;19.30;6.60;;;;;;;16.17;53.75;100547.91;4993318;28;20491;-66
2021/10/06 02:44:03;;;;;;;14.48;7.30;;;;;;;16.15;53.44;100547.22;4990955;28;20025;-67
2021/10/06 02:46:29;;;;;;;13.75;5.45;;;;;;;16.09;53.67;100530.81;4992650;28;20034;-66
2021/10/06 02:48:54;;;;;;;15.68;6.32;;;;;;;16.13;53.35;100551.13;4992996;28;20464;-67
2021/10/06 02:51:20;;;;;;;11.27;6.20;;;;;;;16.06;53.26;100542.81;4993087;28;20046;-66
2021/10/06 02:53:46;;;;;;;12.07;6.45;;;;;;;16.13;53.45;100549.28;4993170;28;20476;-66
2021/10/06 02:56:11;;;;;;;11.65;5.93;;;;;;;16.09;53.13;100544.34;4992675;28;20018;-66
2021/10/06 02:58:37;;;;;;;18.83;6.18;;;;;;;16.15;52.93;100557.22;4992882;28;20042;-66
2021/10/06 03:01:02;;;;;;;14.25;6.22;;;;;;;16.09;53.14;100538.94;4992549;28;20030;-66
2021/10/06 03:03:28;;;;;;;15.02;6.05;;;;;;;16.14;53.06;100547.38;4993000;28;20121;-67
2021/10/06 03:05:54;;;;;;;15.05;5.93;;;;;;;16.14;53.13;100541.97;4993189;28;20022;-66
2021/10/06 03:08:19;;;;;;;10.57;6.25;;;;;;;16.14;53.34;100548.25;4993097;28;20035;-66
2021/10/06 03:10:44;;;;;;;11.05;6.65;;;;;;;16.15;53.71;100551.81;4993277;28;20046;-67
2021/10/06 03:13:10;;;;;;;9.93;6.18;;;;;;;16.08;53.89;100534.50;4992426;28;20026;-66
2021/10/06 03:15:35;;;;;;;8.70;6.00;;;;;;;16.12;54.13;100552.13;4992819;28;20029;-66
2021/10/06 03:18:01;;;;;;;13.05;5.80;;;;;;;16.08;54.03;100546.19;4992975;28;20538;-67
2021/10/06 03:20:26;;;;;;;11.88;6.20;;;;;;;16.13;54.04;100545.72;4992924;28;20034;-66
2021/10/06 03:22:52;;;;;;;10.75;6.18;;;;;;;16.12;54.00;100557.56;4991633;28;20018;-67
2021/10/06 03:25:17;;;;;;;15.13;6.75;;;;;;;16.03;53.90;100545.84;4992575;28;20093;-67
2021/10/06 03:27:43;;;;;;;12.85;6.43;;;;;;;16.03;54.39;100553.13;4992659;28;20049;-67
2021/10/06 03:30:09;;;;;;;13.18;6.75;;;;;;;15.99;54.45;100543.63;4992835;28;20030;-66
2021/10/06 03:32:35;;;;;;;12.85;7.35;;;;;;;16.02;54.47;100557.66;4992857;28;20449;-66
2021/10/06 03:35:01;;;;;;;20.00;7.05;;;;;;;16.02;54.83;100554.97;4992598;28;20472;-66
2021/10/06 03:37:26;;;;;;;12.50;7.35;;;;;;;16.01;55.40;100564.09;4992425;28;20042;-67
2021/10/06 03:39:52;;;;;;;11.52;6.68;;;;;;;15.96;55.51;100552.09;4992678;28;20034;-65
2021/10/06 03:42:17;;;;;;;16.90;6.63;;;;;;;15.96;56.04;100560.19;4992485;28;20037;-66
2021/10/06 03:44:43;;;;;;;17.30;7.22;;;;;;;15.93;56.13;100555.09;4991896;28;20018;-66
2021/10/06 03:47:08;;;;;;;13.88;7.18;;;;;;;15.96;55.83;100579.97;4991187;28;20027;-67
2021/10/06 03:49:34;;;;;;;13.25;6.72;;;;;;;15.90;56.04;100564.41;4991685;28;20130;-67
2021/10/06 03:51:59;;;;;;;12.85;7.60;;;;;;;15.79;55.83;100546.59;4991812;28;20037;-67
2021/10/06 03:54:25;;;;;;;13.98;7.45;;;;;;;15.87;56.33;100565.56;4991568;28;20033;-67
2021/10/06 03:56:50;;;;;;;12.70;7.03;;;;;;;15.83;56.78;100568.75;4991301;28;20030;-67
2021/10/06 03:59:16;;;;;;;12.90;7.78;;;;;;;15.76;56.98;100563.16;4991133;28;20029;-67
2021/10/06 04:01:41;;;;;;;15.82;8.55;;;;;;;15.80;56.64;100566.38;4991368;28;20037;-66
2021/10/06 04:04:07;;;;;;;9.52;6.63;;;;;;;15.77;56.22;100574.81;4991748;28;20610;-67
2021/10/06 04:06:32;;;;;;;12.98;7.28;;;;;;;15.75;56.08;100576.84;4991872;28;20428;-66
2021/10/06 04:08:58;;;;;;;12.77;7.28;;;;;;;15.71;55.77;100564.66;5007334;28;20030;-66
2021/10/06 04:11:23;;;;;;;11.23;7.22;;;;;;;15.64;55.92;100566.31;5007435;28;20113;-67
2021/10/06 04:13:49;;;;;;;15.98;7.22;;;;;;;15.63;56.12;100565.44;4992186;28;20102;-66
2021/10/06 04:16:14;;;;;;;13.93;7.63;;;;;;;15.61;55.79;100563.94;4992120;28;20153;-67
2021/10/06 04:18:40;;;;;;;12.55;7.40;;;;;;;15.64;55.57;100575.25;4992323;28;20024;-66
2021/10/06 04:21:05;;;;;;;19.70;7.47;;;;;;;15.65;55.50;100586.91;4992016;28;20105;-67
2021/10/06 04:23:31;;;;;;;14.45;7.43;;;;;;;15.62;55.95;100587.25;4991887;28;20022;-66
2021/10/06 04:25:56;;;;;;;15.70;8.25;;;;;;;15.51;56.55;100576.72;4991395;28;20042;-66
2021/10/06 04:28:22;;;;;;;17.02;7.60;;;;;;;15.57;56.75;100586.84;5007309;28;20042;-65
2021/10/06 04:30:47;;;;;;;12.30;7.10;;;;;;;15.58;56.99;100588.56;5005397;28;20041;-67
2021/10/06 04:33:13;;;;;;;11.60;7.15;;;;;;;15.49;57.83;100582.28;5014265;28;20037;-67
2021/10/06 04:35:38;;;;;;;13.45;6.95;;;;;;;15.54;58.63;100585.34;4989647;28;20366;-66
2021/10/06 04:38:03;;;;;;;12.65;8.07;;;;;;;15.53;58.58;100585.50;4988797;28;20057;-65
2021/10/06 04:40:29;;;;;;;18.08;9.80;;;;;;;15.50;58.72;100583.97;4989920;28;20093;-68
2021/10/06 04:42:54;;;;;;;19.75;10.90;;;;;;;15.48;58.88;100583.25;4989493;28;20081;-66
2021/10/06 04:45:21;;;;;;;20.42;9.45;;;;;;;15.47;58.88;100583.41;4989573;28;20038;-66
2021/10/06 04:47:47;;;;;;;10.18;8.18;;;;;;;15.46;58.68;100581.72;4989816;28;20353;-66
2021/10/06 04:50:13;;;;;;;11.38;8.10;;;;;;;15.23;58.51;100540.84;4990161;28;20109;-66
2021/10/06 04:52:38;;;;;;;12.30;8.43;;;;;;;15.38;59.12;100579.81;4989296;28;20030;-65
2021/10/06 04:55:05;;;;;;;14.10;8.20;;;;;;;15.38;59.33;100584.41;4988955;28;20030;-67
2021/10/06 04:57:31;;;;;;;12.75;8.43;;;;;;;15.35;59.05;100585.50;4988943;28;20042;-66
2021/10/06 04:59:56;;;;;;;13.25;8.13;;;;;;;15.33;58.50;100597.50;4989294;28;20022;-67
2021/10/06 05:02:22;;;;;;;12.20;7.47;;;;;;;15.30;58.55;100595.97;4989339;28;20547;-67
2021/10/06 05:04:47;;;;;;;12.45;7.50;;;;;;;15.27;58.30;100593.56;4989189;28;20469;-67
2021/10/06 05:07:12;;;;;;;17.58;8.05;;;;;;;15.26;58.18;100583.75;4988967;28;20037;-66
2021/10/06 05:09:38;;;;;;;10.20;7.40;;;;;;;15.25;58.17;100581.25;4987876;28;20046;-66
2021/10/06 05:12:04;;;;;;;14.40;7.75;;;;;;;15.30;57.99;100595.97;4988913;28;20496;-66
2021/10/06 05:14:29;;;;;;;19.38;7.47;;;;;;;15.33;57.58;100590.25;4988681;28;20058;-66
2021/10/06 05:16:54;;;;;;;16.98;7.80;;;;;;;15.31;57.70;100588.69;4989184;28;20022;-67
2021/10/06 05:19:21;;;;;;;15.15;9.40;;;;;;;15.27;57.61;100582.75;4989906;28;20048;-67
2021/10/06 05:21:46;;;;;;;15.15;8.05;;;;;;;15.29;57.56;100577.19;4989027;28;20027;-68
2021/10/06 05:24:11;;;;;;;12.80;7.72;;;;;;;15.26;57.21;100582.94;4989310;28;20053;-66
2021/10/06 05:26:37;;;;;;;16.60;8.15;;;;;;;15.27;56.94;100590.88;4987049;28;20042;-66
2021/10/06 05:29:03;;;;;;;16.88;7.40;;;;;;;15.27;56.87;100596.28;4987519;28;20475;-67
2021/10/06 05:31:28;;;;;;;17.40;7.57;;;;;;;15.28;56.44;100595.25;4989374;28;20031;-66
2021/10/06 05:33:54;;;;;;;13.07;7.68;;;;;;;15.26;56.50;100591.03;4990534;28;20080;-68
2021/10/06 05:36:19;;;;;;;15.13;7.20;;;;;;;15.21;56.04;100578.00;4990958;28;20119;-68
2021/10/06 05:38:45;;;;;;;13.35;7.10;;;;;;;15.20;56.07;100570.91;4994917;28;20022;-66
2021/10/06 05:41:10;;;;;;;13.68;7.20;;;;;;;15.29;56.37;100594.25;4993064;28;20049;-65
2021/10/06 05:43:37;;;;;;;18.35;7.00;;;;;;;15.29;56.12;100591.53;4994361;28;20120;-66
2021/10/06 05:46:02;;;;;;;13.57;7.07;;;;;;;15.11;56.26;100565.56;4994554;28;20101;-67
2021/10/06 05:48:28;;;;;;;14.27;6.82;;;;;;;15.29;55.64;100594.25;4994769;28;20098;-66
2021/10/06 05:50:53;;;;;;;11.65;6.60;;;;;;;15.30;55.76;100598.66;4994818;28;20105;-64
2021/10/06 05:53:19;;;;;;;15.38;7.03;;;;;;;15.28;55.93;100600.66;4994348;28;20304;-63
2021/10/06 05:55:44;;;;;;;8.48;6.88;;;;;;;15.23;55.90;100581.38;4992739;28;20515;-62
2021/10/06 05:58:10;;;;;;;10.50;6.60;;;;;;;15.29;56.12;100609.63;4991857;28;20034;-63
2021/10/06 06:00:36;;;;;;;14.18;7.28;;;;;;;15.30;56.16;100603.22;4994649;28;20026;-64
2021/10/06 06:03:02;;;;;;;14.23;7.25;;;;;;;15.27;56.34;100612.50;4994065;28;20026;-62
2021/10/06 06:05:27;;;;;;;12.85;6.47;;;;;;;15.28;56.50;100611.47;4992779;28;20030;-63
2021/10/06 06:07:53;;;;;;;15.00;6.22;;;;;;;15.21;56.39;100610.41;4994471;28;20391;-62
2021/10/06 06:10:18;;;;;;;11.65;6.68;;;;;;;15.27;56.59;100620.59;4986943;28;20057;-63
2021/10/06 06:12:44;;;;;;;14.05;6.68;;;;;;;15.26;56.76;100626.16;4973531;28;20396;-63
2021/10/06 06:15:10;;;;;;;11.05;6.22;;;;;;;15.27;57.06;100626.00;4974036;28;20239;-63
2021/10/06 06:17:44;;;;;;;12.43;6.90;;;;;;;15.18;57.75;100613.44;4974392;28;20030;-63
2021/10/06 06:20:15;;;;;;;13.63;7.68;;;;;;;15.30;58.75;100625.69;4974566;28;20062;-65
2021/10/06 06:22:41;;;;;;;16.60;7.47;;;;;;;15.26;59.43;100627.00;4974080;28;20054;-66
2021/10/06 06:25:09;;;;;;;9.73;6.85;;;;;;;15.21;60.67;100618.53;4973315;28;20037;-65
2021/10/06 06:27:35;;;;;;;15.13;8.10;;;;;;;15.22;62.11;100632.91;4973728;28;20054;-66
2021/10/06 06:30:00;;;;;;;16.98;8.55;;;;;;;15.20;62.90;100618.69;4988906;28;20046;-64
2021/10/06 06:32:25;;;;;;;13.48;8.00;;;;;;;15.14;63.93;100622.00;4973829;28;20042;-63
2021/10/06 06:34:51;;;;;;;16.80;8.77;;;;;;;15.11;65.72;100620.47;4974040;28;20085;-64
2021/10/06 06:37:17;;;;;;;13.85;7.63;;;;;;;15.13;64.94;100628.41;4972874;28;20027;-64
2021/10/06 06:39:43;;;;;;;13.93;8.05;;;;;;;15.05;65.88;100621.09;4980556;28;20463;-63
2021/10/06 06:42:08;;;;;;;18.95;8.32;;;;;;;15.05;65.88;100626.50;4992996;28;20508;-65
2021/10/06 06:44:34;;;;;;;13.63;8.82;;;;;;;15.04;66.87;100629.34;4992954;28;20038;-64
2021/10/06 06:46:59;;;;;;;15.90;8.60;;;;;;;15.06;66.51;100640.84;4993219;28;20602;-63
2021/10/06 06:49:25;;;;;;;11.13;7.60;;;;;;;15.03;66.55;100636.59;4992117;28;20041;-64
2021/10/06 06:51:50;;;;;;;13.70;7.65;;;;;;;15.03;66.97;100649.28;4991971;28;20042;-64
2021/10/06 06:54:16;;;;;;;10.73;7.82;;;;;;;15.02;66.44;100644.84;4992919;28;20153;-64
2021/10/06 06:56:41;;;;;;;15.40;7.45;;;;;;;14.97;66.89;100648.03;4991713;28;20045;-63
2021/10/06 06:59:08;;;;;;;15.90;8.30;;;;;;;14.98;67.31;100649.72;4993350;28;20115;-63
2021/10/06 07:01:34;;;;;;;14.60;7.63;;;;;;;15.00;67.92;100644.16;4993351;28;20032;-64
2021/10/06 07:03:59;;;;;;;17.00;7.95;;;;;;;14.98;69.26;100665.06;4993420;28;20026;-63
2021/10/06 07:06:27;;;;;;;17.27;8.15;;;;;;;14.91;69.38;100645.97;4993097;28;20096;-63
2021/10/06 07:08:53;;;;;;;15.57;7.75;;;;;;;14.95;69.08;100668.09;4992782;28;20462;-63
2021/10/06 07:11:19;;;;;;;18.85;9.15;;;;;;;14.92;69.64;100671.94;4992668;28;20015;-63
2021/10/06 07:13:44;;;;;;;18.52;8.70;;;;;;;14.86;70.92;100667.16;4993065;28;20476;-64
2021/10/06 07:16:09;;;;;;;15.00;8.23;;;;;;;14.90;71.37;100676.66;4992682;28;20040;-62
2021/10/06 07:18:35;;;;;;;14.77;8.70;;;;;;;14.88;72.03;100677.81;4992916;28;20026;-66
2021/10/06 07:21:01;;;;;;;9.63;7.65;;;;;;;14.86;72.68;100696.88;4993152;28;20042;-62
2021/10/06 07:23:26;;;;;;;13.80;7.95;;;;;;;14.72;73.91;100670.41;4992364;28;20030;-62
2021/10/06 07:25:52;;;;;;;11.25;8.68;;;;;;;14.82;74.69;100702.72;4992250;28;20045;-63
2021/10/06 07:28:17;;;;;;;16.85;9.52;;;;;;;14.82;75.47;100711.69;4992906;28;20041;-63
2021/10/06 07:30:43;;;;;;;23.20;8.25;;;;;;;14.84;75.55;100720.50;4992539;28;20053;-62
2021/10/06 07:33:08;;;;;;;13.05;8.35;;;;;;;14.81;74.22;100715.41;4992622;28;20032;-62
2021/10/06 07:35:34;;;;;;;15.32;8.25;;;;;;;14.82;74.59;100727.03;4992421;28;20027;-63
2021/10/06 07:37:59;;;;;;;12.57;9.07;;;;;;;14.79;74.72;100722.78;4991752;28;20480;-62
2021/10/06 07:40:25;;;;;;;14.48;8.93;;;;;;;14.79;74.96;100727.31;4991810;28;20395;-63
2021/10/06 07:42:50;;;;;;;14.07;8.88;;;;;;;14.79;75.76;100732.72;4991538;28;20108;-64
2021/10/06 07:45:16;;;;;;;13.68;8.15;;;;;;;14.79;76.41;100741.69;5006249;28;20018;-64
2021/10/06 07:47:42;;;;;;;12.63;8.90;;;;;;;14.76;77.34;100744.69;4992027;28;20033;-62
2021/10/06 07:50:07;;;;;;;14.48;9.35;;;;;;;14.77;77.83;100745.56;4991954;28;20022;-63
2021/10/06 07:52:33;;;;;;;10.73;8.48;;;;;;;14.72;77.69;100747.84;4991759;28;20499;-63
2021/10/06 07:54:58;;;;;;;12.10;9.02;;;;;;;14.70;78.18;100747.16;4991809;28;20022;-64
2021/10/06 07:57:24;;;;;;;15.25;8.88;;;;;;;14.70;79.30;100753.38;4991759;28;20392;-63
2021/10/06 07:59:49;;;;;;;13.63;8.95;;;;;;;14.69;80.35;100749.00;4991802;28;20495;-64
2021/10/06 08:02:15;;;;;;;13.00;8.93;;;;;;;14.69;80.72;100757.09;4991772;28;20022;-64
2021/10/06 08:04:40;;;;;;;16.63;9.60;;;;;;;14.68;82.22;100762.66;4991683;28;20019;-64
2021/10/06 08:07:06;;;;;;;18.73;9.98;;;;;;;14.64;81.82;100758.56;4991452;28;20022;-63
2021/10/06 08:09:32;;;;;;;13.70;9.23;;;;;;;14.57;82.90;100752.06;4991864;28;20097;-63
2021/10/06 08:11:57;;;;;;;12.50;9.57;;;;;;;14.62;83.07;100763.25;4991545;28;20133;-62
2021/10/06 08:14:23;;;;;;;14.75;9.38;;;;;;;14.61;82.55;100761.56;4991569;28;20113;-62
2021/10/06 08:16:49;;;;;;;14.98;9.23;;;;;;;14.59;82.39;100756.31;4991787;28;20022;-62
2021/10/06 08:19:15;;;;;;;20.60;10.43;;;;;;;14.56;82.86;100758.44;4991526;28;20480;-63
2021/10/06 08:21:40;;;;;;;18.80;9.70;;;;;;;14.50;83.38;100742.84;4991379;28;20029;-63
2021/10/06 08:24:06;;;;;;;16.55;9.85;;;;;;;14.54;84.01;100750.47;4990232;28;20084;-62
2021/10/06 08:26:31;;;;;;;16.20;9.57;;;;;;;14.50;84.91;100745.53;4991418;28;20059;-63
2021/10/06 08:28:57;;;;;;;18.40;11.00;;;;;;;14.51;85.25;100755.34;4991308;28;20034;-64
2021/10/06 08:31:23;;;;;;;12.30;9.35;;;;;;;14.49;85.16;100751.94;5006476;28;20029;-64
2021/10/06 08:33:49;;;;;;;19.83;10.27;;;;;;;14.47;85.98;100754.78;4991301;28;20376;-64
2021/10/06 08:36:14;;;;;;;15.32;9.55;;;;;;;14.42;86.63;100743.59;4990866;28;20033;-63
2021/10/06 08:38:40;;;;;;;18.83;9.23;;;;;;;14.42;86.13;100750.84;4991087;28;20044;-62
2021/10/06 08:41:06;;;;;;;17.45;9.95;;;;;;;14.37;87.49;100740.47;4991103;28;20042;-64
2021/10/06 08:43:31;;;;;;;18.65;9.55;;;;;;;14.38;87.20;100744.03;4989869;28;20097;-63
2021/10/06 08:45:59;;;;;;;18.25;9.40;;;;;;;14.39;86.80;100749.28;4990891;28;20077;-63
2021/10/06 08:48:26;;;;;;;19.10;8.90;;;;;;;14.41;86.78;100754.53;4991417;28;20037;-63
2021/10/06 08:50:51;;;;;;;15.13;9.63;;;;;;;14.36;87.83;100754.13;4990835;28;20472;-62
2021/10/06 08:53:16;;;;;;;17.58;10.18;;;;;;;14.31;88.42;100743.78;4991102;28;20030;-64
2021/10/06 08:55:44;;;;;;;17.80;10.30;;;;;;;14.26;89.28;100745.22;4989476;28;20490;-64
2021/10/06 08:58:10;;;;;;;15.48;9.60;;;;;;;14.31;89.80;100745.66;5006059;28;20488;-63
2021/10/06 09:00:56;;;;;;;19.77;9.73;;;;;;;14.30;90.83;100750.19;4990843;28;20029;-62
2021/10/06 09:03:27;;;;;;;16.30;9.52;;;;;;;14.27;90.95;100758.56;4990667;28;20081;-63
2021/10/06 09:06:08;;;;;;;14.85;9.48;;;;;;;14.26;91.05;100756.00;4990978;28;20523;-64
2021/10/06 09:08:35;;;;;;;20.30;9.52;;;;;;;14.23;90.28;100764.41;4989436;28;20113;-63
2021/10/06 09:11:02;;;;;;;18.05;10.18;;;;;;;14.16;90.49;100755.16;4989144;28;20117;-63
2021/10/06 09:13:31;;;;;;;18.95;9.80;;;;;;;14.14;91.18;100751.75;4990955;28;20042;-63
2021/10/06 09:15:58;;;;;;;17.27;10.13;;;;;;;14.14;91.45;100758.00;4990534;28;20102;-64
2021/10/06 09:18:26;;;;;;;12.75;9.10;;;;;;;14.09;91.78;100762.97;4991184;28;20552;-64
2021/10/06 09:20:52;;;;;;;14.48;9.52;;;;;;;14.06;92.17;100759.75;4991208;28;20141;-63
2021/10/06 09:23:20;;;;;;;12.55;9.80;;;;;;;14.04;92.53;100759.88;4990575;28;20041;-63
2021/10/06 09:25:56;;;;;;;14.18;9.45;;;;;;;14.02;92.77;100761.03;4990419;28;20097;-64
2021/10/06 09:28:27;;;;;;;21.55;10.00;;;;;;;14.00;93.70;100755.78;4990453;28;20150;-64
2021/10/06 09:30:54;;;;;;;14.05;9.77;;;;;;;14.00;93.74;100761.19;4990395;28;20521;-64
2021/10/06 09:33:20;;;;;;;16.63;10.25;;;;;;;13.97;93.61;100753.38;4990516;28;20030;-65
2021/10/06 09:35:49;;;;;;;16.38;10.38;;;;;;;13.94;94.23;100755.50;4989390;28;20061;-64
2021/10/06 09:38:15;;;;;;;13.85;9.10;;;;;;;13.83;94.38;100742.19;4990455;28;20034;-64
2021/10/06 09:40:40;;;;;;;15.60;9.48;;;;;;;13.89;94.71;100752.41;4990889;28;20041;-64
2021/10/06 09:43:05;;;;;;;18.88;10.80;;;;;;;13.88;94.93;100746.16;4990124;28;20480;-65
2021/10/06 09:45:53;;;;;;;16.10;9.82;;;;;;;13.87;95.29;100755.25;4990435;28;20064;-65
2021/10/06 09:48:22;;;;;;;16.67;10.82;;;;;;;13.87;95.41;100749.00;4986038;28;20037;-65
2021/10/06 09:50:49;;;;;;;15.13;10.00;;;;;;;13.76;95.84;100739.22;4990337;28;20054;-64
2021/10/06 09:53:16;;;;;;;20.15;11.35;;;;;;;13.85;95.91;100746.44;4990169;28;20034;-64
2021/10/06 09:55:45;;;;;;;13.68;10.75;;;;;;;13.85;96.47;100741.03;4990012;28;20026;-65
2021/10/06 09:58:12;;;;;;;16.77;10.65;;;;;;;13.83;96.69;100752.97;4990277;28;20034;-64
2021/10/06 10:00:40;;;;;;;15.10;11.13;;;;;;;13.82;96.11;100751.25;4989918;28;20045;-64
2021/10/06 10:03:06;;;;;;;19.95;11.68;;;;;;;13.76;96.36;100738.38;4990228;28;20392;-64
2021/10/06 10:05:34;;;;;;;17.45;11.43;;;;;;;13.83;97.61;100755.69;4990091;28;20018;-64
2021/10/06 10:08:01;;;;;;;13.27;10.23;;;;;;;13.80;95.66;100740.63;4989845;28;20080;-64
2021/10/06 10:10:26;;;;;;;17.00;10.07;;;;;;;13.76;96.14;100752.69;4990375;28;20030;-64
2021/10/06 10:12:52;;;;;;;25.30;10.48;;;;;;;13.70;96.56;100750.56;4990076;28;20053;-62
2021/10/06 10:15:20;;;;;;;18.17;9.98;;;;;;;13.73;97.43;100758.38;4990045;28;20030;-63
2021/10/06 10:17:51;;;;;;;18.92;10.55;;;;;;;13.73;97.54;100762.94;4990187;28;20041;-63
2021/10/06 10:20:17;;;;;;;17.65;9.88;;;;;;;13.67;96.98;100753.56;4989929;28;20152;-63
2021/10/06 10:22:49;;;;;;;15.02;9.27;;;;;;;13.73;97.29;100771.03;4989791;28;20543;-65
2021/10/06 10:25:22;;;;;;;16.90;10.70;;;;;;;13.73;97.54;100773.72;5008244;28;20026;-64
2021/10/06 10:28:03;;;;;;;18.55;10.60;;;;;;;13.70;96.95;100764.91;4993370;28;20097;-63
2021/10/06 10:30:30;;;;;;;17.75;10.48;;;;;;;13.70;96.13;100753.28;4993750;28;20030;-64
2021/10/06 10:32:56;;;;;;;16.25;9.60;;;;;;;13.69;94.81;100746.19;4993992;28;20030;-63
2021/10/06 10:35:39;;;;;;;17.40;9.43;;;;;;;13.67;95.96;100753.56;4993344;28;20033;-64
2021/10/06 10:38:05;;;;;;;15.45;10.15;;;;;;;13.64;96.73;100756.53;5008356;28;20038;-65
2021/10/06 10:40:31;;;;;;;13.80;9.70;;;;;;;13.61;96.10;100748.75;4993162;28;20121;-63
2021/10/06 10:42:57;;;;;;;18.63;9.20;;;;;;;13.56;96.21;100748.31;4993423;28;20108;-64
2021/10/06 10:45:47;;;;;;;25.27;10.93;;;;;;;13.61;96.35;100757.69;4992795;28;20480;-64
2021/10/06 10:48:22;;;;;;;18.92;11.60;;;;;;;13.58;95.98;100755.25;4993143;28;20031;-64
2021/10/06 10:50:48;;;;;;;19.67;9.35;;;;;;;13.59;95.82;100753.44;5008093;28;20034;-65
2021/10/06 10:53:16;;;;;;;26.92;12.88;;;;;;;13.58;96.75;100752.56;4993456;28;20014;-63
2021/10/06 10:55:58;;;;;;;19.17;11.93;;;;;;;13.58;97.99;100755.25;5007828;28;20484;-62
2021/10/06 10:58:43;;;;;;;18.88;10.65;;;;;;;13.59;97.67;100753.44;4993247;28;20037;-63
2021/10/06 11:01:12;;;;;;;;;;;;;;;13.58;98.35;100751.75;4993511;28;20026;-64
2021/10/06 11:04:07;;;;;;;18.33;10.05;;;;;;;13.60;97.29;100747.91;4992810;28;19914;-64
2021/10/06 11:06:34;;;;;;;17.73;9.32;;;;;;;13.62;97.38;100745.06;4993085;28;20093;-63
2021/10/06 11:09:00;;;;;;;25.05;10.25;;;;;;;13.64;96.33;100740.34;4992647;28;20034;-63
2021/10/06 11:11:25;;;;;;;17.38;11.07;;;;;;;13.62;96.94;100750.44;4993098;28;20493;-64
2021/10/06 11:13:52;;;;;;;18.48;10.25;;;;;;;13.60;98.15;100747.91;4992602;28;20096;-63